Time;durP1;ratioP1;P1;durP2;ratioP2;P2;SDS_P1;SDS_P2;PMS_P1;PMS_P2;Temp;Humidity;BMP_temperature;BMP_pressure;BME280_temperature;BME280_humidity;BME280_pressure;Samples;Min_cycle;Max_cycle;Signal;HPM_P1;HPM_P2
2023/09/16 00:02:38;;;;;;;19.63;13.88;;;;;;;12.60;100.00;101557.47;10319068;28;20047;-81
2023/09/16 00:07:38;;;;;;;19.15;14.65;;;;;;;12.49;100.00;101556.47;10318462;28;20445;-80
2023/09/16 00:12:38;;;;;;;22.40;14.57;;;;;;;12.41;100.00;101543.06;10317041;28;20039;-82
2023/09/16 00:17:39;;;;;;;20.27;14.18;;;;;;;12.30;100.00;101545.66;10316398;28;20495;-80
2023/09/16 00:22:41;;;;;;;19.80;14.35;;;;;;;12.23;100.00;101539.44;10292658;28;20505;-81
2023/09/16 00:27:42;;;;;;;23.30;15.90;;;;;;;12.12;100.00;101534.84;10308592;28;20050;-79
2023/09/16 00:32:43;;;;;;;23.55;15.55;;;;;;;12.04;100.00;101538.00;10318434;28;20047;-81
2023/09/16 00:37:43;;;;;;;24.10;16.80;;;;;;;12.00;100.00;101534.06;10310733;28;20046;-79
2023/09/16 00:42:44;;;;;;;23.15;17.00;;;;;;;12.06;100.00;101530.31;10307550;28;20046;-80
2023/09/16 00:47:44;;;;;;;25.65;18.55;;;;;;;12.06;100.00;101522.03;10311271;28;20046;-81
2023/09/16 00:53:03;;;;;;;25.42;17.55;;;;;;;12.07;100.00;101520.94;10316530;28;20430;-82
2023/09/16 00:58:04;;;;;;;26.73;18.45;;;;;;;12.05;100.00;101514.81;10302421;28;20045;-81
2023/09/16 01:03:06;;;;;;;30.58;19.50;;;;;;;11.85;100.00;101474.72;10302828;28;20039;-81
2023/09/16 01:08:07;;;;;;;23.33;17.05;;;;;;;12.02;100.00;101504.28;10297299;28;20121;-82
2023/09/16 01:13:08;;;;;;;27.35;19.90;;;;;;;12.03;100.00;101500.44;10311634;28;20095;-82
2023/09/16 01:18:19;;;;;;;30.00;20.58;;;;;;;12.06;100.00;101488.91;10314072;28;20043;-83
2023/09/16 01:23:20;;;;;;;31.00;20.88;;;;;;;12.07;100.00;101488.66;10298719;28;20043;-81
2023/09/16 01:28:22;;;;;;;33.13;22.00;;;;;;;12.11;100.00;101487.09;10314561;28;20509;-81
2023/09/16 01:33:25;;;;;;;29.05;20.88;;;;;;;12.09;100.00;101469.06;10320346;28;20038;-81
2023/09/16 01:38:25;;;;;;;31.25;20.73;;;;;;;12.14;100.00;101482.97;10303186;28;20122;-84
2023/09/16 01:43:26;;;;;;;29.58;21.75;;;;;;;12.14;100.00;101485.75;10312058;28;20039;-83
2023/09/16 01:48:26;;;;;;;35.88;22.40;;;;;;;12.19;100.00;101485.81;10320035;28;20042;-82
2023/09/16 01:53:26;;;;;;;32.35;22.27;;;;;;;12.21;100.00;101488.34;10320163;28;20081;-83
2023/09/16 01:58:27;;;;;;;30.80;21.80;;;;;;;12.19;100.00;101480.28;10320968;28;20038;-81
2023/09/16 02:03:28;;;;;;;33.30;21.80;;;;;;;12.16;100.00;101480.81;10317125;28;20039;-83
2023/09/16 02:08:28;;;;;;;31.42;20.80;;;;;;;12.10;100.00;101482.63;10313815;28;20045;-82
2023/09/16 02:13:28;;;;;;;29.35;21.30;;;;;;;12.03;100.00;101475.59;10313755;28;20083;-83
2023/09/16 02:18:29;;;;;;;32.78;23.52;;;;;;;12.13;100.00;101475.78;10313677;28;20565;-83
2023/09/16 02:23:30;;;;;;;33.33;22.52;;;;;;;12.17;100.00;101482.47;10320790;28;20118;-71
2023/09/16 02:28:31;;;;;;;34.30;22.45;;;;;;;12.14;100.00;101488.50;10315598;28;20070;-83
2023/09/16 02:33:32;;;;;;;33.47;22.17;;;;;;;12.15;100.00;101476.34;10321395;28;20132;-83
2023/09/16 02:38:32;;;;;;;32.30;22.73;;;;;;;12.18;100.00;101478.63;10304519;28;20083;-83
2023/09/16 02:43:32;;;;;;;31.60;22.92;;;;;;;12.16;100.00;101474.47;10311168;28;20101;-83
2023/09/16 02:48:33;;;;;;;32.58;22.83;;;;;;;12.17;100.00;101479.69;10314707;28;20067;-82
2023/09/16 02:53:33;;;;;;;31.60;21.92;;;;;;;12.19;100.00;101479.47;10318375;28;20113;-81
2023/09/16 02:58:34;;;;;;;34.60;23.17;;;;;;;12.08;100.00;101464.66;10318012;28;20043;-80
2023/09/16 03:03:35;;;;;;;32.10;22.88;;;;;;;12.14;100.00;101469.19;10317681;28;20046;-83
2023/09/16 03:08:35;;;;;;;35.13;23.23;;;;;;;12.10;100.00;101468.84;10304959;28;20069;-82
2023/09/16 03:13:36;;;;;;;32.75;22.33;;;;;;;12.08;100.00;101467.41;10304280;28;20043;-82
2023/09/16 03:18:36;;;;;;;42.78;22.48;;;;;;;12.02;100.00;101468.41;10318666;28;20043;-79
2023/09/16 03:23:36;;;;;;;36.60;23.90;;;;;;;11.96;100.00;101459.19;10313876;28;20047;-83
2023/09/16 03:28:40;;;;;;;34.15;23.05;;;;;;;12.02;100.00;101471.19;10318913;28;20050;-82
2023/09/16 03:33:40;;;;;;;33.95;24.42;;;;;;;12.03;100.00;101470.94;10306973;28;20066;-82
2023/09/16 03:38:50;;;;;;;35.38;23.70;;;;;;;12.01;100.00;101466.72;10316916;28;20049;-82
2023/09/16 03:43:50;;;;;;;34.75;23.75;;;;;;;11.96;100.00;101458.38;10303367;28;20125;-82
2023/09/16 03:48:51;;;;;;;32.58;25.13;;;;;;;11.93;100.00;101451.44;10317779;28;20116;-81
2023/09/16 03:53:51;;;;;;;35.35;25.10;;;;;;;11.88;100.00;101440.28;10310968;28;20043;-81
2023/09/16 03:58:52;;;;;;;39.45;25.98;;;;;;;11.64;100.00;101407.31;10318121;28;20049;-81
2023/09/16 04:03:54;;;;;;;38.92;25.50;;;;;;;11.83;100.00;101454.81;10314660;28;20049;-80
2023/09/16 04:08:55;;;;;;;39.65;26.10;;;;;;;11.76;100.00;101445.88;10300510;28;20046;-82
2023/09/16 04:13:55;;;;;;;39.95;25.60;;;;;;;11.70;100.00;101439.41;10301169;28;20066;-82
2023/09/16 04:18:58;;;;;;;38.25;26.02;;;;;;;11.67;100.00;101444.59;10302927;28;20490;-82
2023/09/16 04:23:58;;;;;;;41.97;27.90;;;;;;;11.61;100.00;101457.44;10314750;28;20042;-84
2023/09/16 04:28:58;;;;;;;39.20;26.90;;;;;;;11.58;100.00;101449.66;10314553;28;20046;-81
2023/09/16 04:33:59;;;;;;;42.67;28.40;;;;;;;11.49;100.00;101442.88;10317389;28;20090;-83
2023/09/16 04:38:59;;;;;;;41.95;27.92;;;;;;;11.52;100.00;101448.72;10310647;28;20066;-82
2023/09/16 04:44:00;;;;;;;40.30;26.15;;;;;;;11.47;100.00;101445.88;10311431;28;20039;-79
2023/09/16 04:49:00;;;;;;;40.97;27.30;;;;;;;11.39;100.00;101449.03;10306257;28;20077;-83
2023/09/16 04:54:01;;;;;;;41.33;26.60;;;;;;;11.34;100.00;101448.91;10315310;28;20058;-81
2023/09/16 04:59:01;;;;;;;43.10;27.65;;;;;;;11.29;100.00;101448.84;10318314;28;20049;-83
2023/09/16 05:04:02;;;;;;;39.60;26.65;;;;;;;11.23;100.00;101444.31;10301443;28;20475;-83
2023/09/16 05:09:02;;;;;;;42.28;26.83;;;;;;;11.18;100.00;101445.00;10318134;28;20043;-82
2023/09/16 05:14:03;;;;;;;45.08;27.92;;;;;;;11.09;100.00;101433.53;10322422;28;20425;-82
2023/09/16 05:19:04;;;;;;;41.97;27.45;;;;;;;11.16;100.00;101449.09;10317906;28;20518;-82
2023/09/16 05:24:05;;;;;;;43.45;26.35;;;;;;;11.14;100.00;101449.38;10310083;28;20586;-82
2023/09/16 05:29:05;;;;;;;42.08;27.55;;;;;;;11.18;100.00;101457.97;10317480;28;20035;-82
2023/09/16 05:34:06;;;;;;;39.78;26.65;;;;;;;11.23;100.00;101455.31;10320587;28;20045;-83
2023/09/16 05:39:06;;;;;;;40.00;26.98;;;;;;;11.13;100.00;101419.28;10319157;28;20098;-82
2023/09/16 05:44:07;;;;;;;44.42;29.00;;;;;;;11.31;100.00;101441.16;10314478;28;20043;-71
2023/09/16 05:49:11;;;;;;;45.42;28.42;;;;;;;11.37;100.00;101448.44;10320492;28;20046;-83
2023/09/16 05:54:13;;;;;;;44.83;29.38;;;;;;;11.46;100.00;101449.72;10317109;28;20047;-82
2023/09/16 05:59:14;;;;;;;51.47;31.80;;;;;;;11.60;100.00;101438.41;10323404;28;20047;-82
2023/09/16 06:04:14;;;;;;;48.03;30.40;;;;;;;11.68;100.00;101446.28;10316036;28;20066;-83
2023/09/16 06:09:15;;;;;;;49.80;32.05;;;;;;;11.79;100.00;101441.78;10314700;28;20051;-82
2023/09/16 06:14:15;;;;;;;46.47;31.30;;;;;;;12.06;100.00;101453.03;10318675;28;20046;-82
2023/09/16 06:19:16;;;;;;;49.35;31.15;;;;;;;12.35;100.00;101444.66;10312947;28;20046;-82
2023/09/16 06:24:16;;;;;;;43.88;29.73;;;;;;;12.68;100.00;101449.31;10320514;28;20065;-82
2023/09/16 06:29:17;;;;;;;43.38;29.00;;;;;;;12.95;100.00;101448.56;10315407;28;20042;-82
2023/09/16 06:34:17;;;;;;;37.33;26.25;;;;;;;13.17;100.00;101443.00;10319488;28;20042;-82
2023/09/16 06:39:17;;;;;;;32.72;24.95;;;;;;;13.38;100.00;101444.16;10304805;28;20047;-82
2023/09/16 06:44:18;;;;;;;31.33;21.88;;;;;;;13.60;100.00;101449.63;10307244;28;20047;-70
2023/09/16 06:49:18;;;;;;;27.92;20.55;;;;;;;13.82;100.00;101450.41;10312471;28;22313;-81
2023/09/16 06:54:19;;;;;;;29.38;21.35;;;;;;;14.03;100.00;101458.91;10318643;28;20149;-82
2023/09/16 06:59:19;;;;;;;30.42;21.45;;;;;;;14.23;100.00;101464.63;10316440;28;20035;-84
2023/09/16 07:04:20;;;;;;;28.08;19.25;;;;;;;14.40;100.00;101463.63;10319517;28;20038;-82
2023/09/16 07:09:21;;;;;;;25.02;18.90;;;;;;;14.60;100.00;101460.22;10310519;28;20046;-82
2023/09/16 07:14:21;;;;;;;23.25;17.80;;;;;;;14.72;100.00;101463.63;10309460;28;20110;-81
2023/09/16 07:19:21;;;;;;;27.23;19.08;;;;;;;14.66;100.00;101434.22;10293073;28;20065;-81
2023/09/16 07:24:22;;;;;;;22.98;17.42;;;;;;;15.04;100.00;101471.81;10318675;28;20034;-81
2023/09/16 07:29:22;;;;;;;23.23;16.77;;;;;;;15.22;100.00;101469.69;10308751;28;20043;-81
2023/09/16 07:34:25;;;;;;;24.42;17.77;;;;;;;15.34;100.00;101461.97;10299929;28;20042;-81
2023/09/16 07:39:25;;;;;;;20.45;15.40;;;;;;;15.20;100.00;101420.03;10297984;28;20097;-82
2023/09/16 07:44:26;;;;;;;21.33;16.13;;;;;;;15.65;100.00;101467.63;10307106;28;20121;-81
2023/09/16 07:49:27;;;;;;;20.50;15.48;;;;;;;15.82;100.00;101473.78;10299593;28;20514;-72
2023/09/16 07:54:27;;;;;;;21.60;15.20;;;;;;;15.97;100.00;101472.13;10297226;28;20050;-81
2023/09/16 07:59:28;;;;;;;18.23;15.45;;;;;;;16.11;100.00;101473.25;10304803;28;20039;-81
2023/09/16 08:04:28;;;;;;;18.83;15.13;;;;;;;16.32;100.00;101483.25;10297497;28;20084;-81
2023/09/16 08:09:28;;;;;;;21.30;14.38;;;;;;;16.55;100.00;101469.91;10298113;28;20110;-82
2023/09/16 08:14:29;;;;;;;17.75;13.75;;;;;;;16.96;100.00;101475.41;10283470;28;20042;-80
2023/09/16 08:19:30;;;;;;;19.33;13.10;;;;;;;17.01;100.00;101483.75;10298144;28;20039;-80
2023/09/16 08:24:31;;;;;;;16.20;12.70;;;;;;;16.93;100.00;101495.44;10296389;28;20035;-80
2023/09/16 08:29:31;;;;;;;18.73;14.15;;;;;;;17.03;100.00;101492.66;10294491;28;20039;-80
2023/09/16 08:34:32;;;;;;;17.23;13.88;;;;;;;17.34;100.00;101492.50;10307767;28;20630;-81
2023/09/16 08:39:32;;;;;;;17.40;13.65;;;;;;;17.60;100.00;101484.06;10314900;28;20050;-80
2023/09/16 08:44:36;;;;;;;16.27;12.75;;;;;;;17.79;100.00;101475.84;10305583;28;20079;-71
2023/09/16 08:49:40;;;;;;;15.23;12.13;;;;;;;17.90;100.00;101488.59;10289289;28;20157;-81
2023/09/16 08:54:40;;;;;;;18.92;13.38;;;;;;;17.85;100.00;101485.88;10313178;28;20148;-81
2023/09/16 08:59:41;;;;;;;15.60;13.00;;;;;;;18.18;100.00;101484.25;10309222;28;20078;-79
2023/09/16 09:04:41;;;;;;;15.43;11.13;;;;;;;18.66;100.00;101484.34;10290759;28;20038;-79
2023/09/16 09:09:42;;;;;;;18.77;11.68;;;;;;;19.16;100.00;101475.75;10310634;28;20122;-82
2023/09/16 09:14:42;;;;;;;13.85;10.65;;;;;;;19.71;100.00;101478.13;10297985;28;20043;-81
2023/09/16 09:19:43;;;;;;;12.25;9.80;;;;;;;19.95;100.00;101480.84;10317465;28;20039;-73
2023/09/16 09:24:43;;;;;;;14.48;10.40;;;;;;;20.10;100.00;101465.81;10321345;28;20170;-83
2023/09/16 09:29:44;;;;;;;14.43;10.60;;;;;;;20.24;100.00;101463.06;10317523;28;20043;-83
2023/09/16 09:34:44;;;;;;;15.57;9.52;;;;;;;20.24;100.00;101461.09;10323166;28;20035;-85
2023/09/16 09:39:45;;;;;;;14.15;10.30;;;;;;;20.18;100.00;101462.31;10305857;28;20481;-83
2023/09/16 09:44:46;;;;;;;11.43;8.85;;;;;;;20.44;100.00;101465.47;10305632;28;20568;-82
2023/09/16 09:49:46;;;;;;;14.65;9.85;;;;;;;20.71;100.00;101456.38;10313329;28;20077;-83
2023/09/16 09:54:50;;;;;;;10.90;8.73;;;;;;;20.86;100.00;101455.25;10321454;28;20051;-83
2023/09/16 09:59:50;;;;;;;15.40;10.15;;;;;;;21.15;100.00;101452.13;10301118;28;20063;-84
2023/09/16 10:05:01;;;;;;;12.43;9.15;;;;;;;21.31;100.00;101449.84;10321423;28;20042;-84
2023/09/16 10:10:02;;;;;;;11.15;8.80;;;;;;;21.53;100.00;101446.28;10307092;28;20038;-82
2023/09/16 10:15:07;;;;;;;9.30;8.05;;;;;;;21.78;100.00;101444.03;10299938;28;20038;-82
2023/09/16 10:20:11;;;;;;;13.05;8.15;;;;;;;22.31;100.00;101442.50;10318389;28;20046;-83
2023/09/16 10:25:12;;;;;;;9.13;7.18;;;;;;;22.70;100.00;101433.31;10315833;28;20062;-83
2023/09/16 10:30:13;;;;;;;8.73;6.85;;;;;;;22.84;100.00;101433.19;10319611;28;20506;-84
2023/09/16 10:35:14;;;;;;;9.38;6.40;;;;;;;22.89;100.00;101430.25;10315242;28;20042;-83
2023/09/16 10:40:14;;;;;;;9.15;6.65;;;;;;;23.01;100.00;101420.34;10315151;28;20043;-83
2023/09/16 10:45:15;;;;;;;10.23;6.28;;;;;;;23.25;100.00;101420.78;10315636;28;20484;-83
2023/09/16 10:50:16;;;;;;;8.77;6.57;;;;;;;23.56;100.00;101415.06;10292875;28;20046;-83
2023/09/16 10:55:44;;;;;;;7.00;5.75;;;;;;;23.78;100.00;101399.22;10313844;28;20042;-83
2023/09/16 11:00:47;;;;;;;9.27;6.30;;;;;;;24.01;100.00;101391.41;10312152;28;20039;-85
2023/09/16 11:05:48;;;;;;;7.47;4.45;;;;;;;24.15;100.00;101383.59;10316771;28;20057;-83
2023/09/16 11:10:48;;;;;;;4.70;3.80;;;;;;;24.32;100.00;101391.16;10299910;28;20053;-83
2023/09/16 11:15:49;;;;;;;7.70;3.67;;;;;;;24.28;100.00;101381.75;10303613;28;20045;-81
2023/09/16 11:20:50;;;;;;;6.88;3.58;;;;;;;24.44;100.00;101364.34;10300546;28;20066;-81
2023/09/16 11:25:50;;;;;;;5.32;3.97;;;;;;;24.51;100.00;101370.28;10293068;28;20057;-80
2023/09/16 11:30:55;;;;;;;5.90;5.03;;;;;;;24.87;100.00;101360.53;10317895;28;20046;-84
2023/09/16 11:36:15;;;;;;;8.35;5.20;;;;;;;25.27;100.00;101362.94;10308108;28;20125;-82
2023/09/16 11:41:18;;;;;;;5.90;4.55;;;;;;;25.34;100.00;101364.03;10312605;28;20109;-83
2023/09/16 11:46:19;;;;;;;7.68;5.80;;;;;;;25.26;100.00;101364.09;10310034;28;20045;-80
2023/09/16 11:51:21;;;;;;;10.43;5.68;;;;;;;25.55;100.00;101357.56;10302838;28;20046;-82
2023/09/16 11:56:25;;;;;;;7.35;5.20;;;;;;;26.21;100.00;101353.97;10297777;28;20141;-83
2023/09/16 12:01:30;;;;;;;9.13;7.00;;;;;;;27.01;100.00;101349.75;10287278;28;20058;-84
2023/09/16 12:06:31;;;;;;;6.47;4.87;;;;;;;27.56;99.98;101336.94;10299031;28;20042;-83
2023/09/16 12:11:32;;;;;;;6.65;4.78;;;;;;;27.82;100.00;101352.59;10298216;28;20093;-85
2023/09/16 12:16:32;;;;;;;5.85;4.50;;;;;;;28.48;98.55;101339.84;10286724;28;20471;-78
2023/09/16 12:21:33;;;;;;;4.72;3.42;;;;;;;28.82;92.01;101322.50;10306491;28;20047;-85
2023/09/16 12:26:34;;;;;;;4.40;2.85;;;;;;;28.81;84.39;101304.66;10299448;28;20078;-84
2023/09/16 12:31:35;;;;;;;5.45;3.70;;;;;;;29.09;87.70;101321.50;10294835;28;20058;-84
2023/09/16 12:36:35;;;;;;;5.35;4.00;;;;;;;29.91;85.62;101311.09;10294746;28;20042;-84
2023/09/16 12:41:36;;;;;;;4.20;3.15;;;;;;;30.25;82.33;101319.00;10280539;28;20046;-84
2023/09/16 12:46:36;;;;;;;3.95;2.40;;;;;;;29.63;79.34;101313.34;10311016;28;20042;-85
2023/09/16 12:51:37;;;;;;;3.42;2.80;;;;;;;29.31;83.10;101299.31;10294202;28;20071;-86
2023/09/16 12:56:39;;;;;;;7.25;3.53;;;;;;;28.92;86.28;101317.06;10312706;28;20042;-87
2023/09/16 13:01:40;;;;;;;7.70;2.88;;;;;;;28.98;83.99;101309.09;10310840;28;20042;-85
2023/09/16 13:06:41;;;;;;;4.68;2.28;;;;;;;28.74;77.55;101293.97;10312240;28;20038;-83
2023/09/16 13:11:41;;;;;;;3.10;2.20;;;;;;;28.95;75.50;101273.00;10296995;28;20042;-82
2023/09/16 13:16:41;;;;;;;3.42;1.88;;;;;;;28.70;76.94;101293.06;10305569;28;20038;-83
2023/09/16 13:21:42;;;;;;;4.70;1.52;;;;;;;29.43;73.13;101267.97;10313207;28;20042;-84
2023/09/16 13:26:55;;;;;;;2.95;1.67;;;;;;;29.85;74.71;101283.38;10314890;28;20038;-85
2023/09/16 13:32:05;;;;;;;3.13;2.00;;;;;;;30.71;68.68;101267.81;10321308;28;20077;-83
2023/09/16 13:37:05;;;;;;;2.47;1.48;;;;;;;31.00;68.14;101271.09;10318211;28;20034;-80
2023/09/16 13:42:05;;;;;;;3.15;1.95;;;;;;;30.73;64.28;101249.19;10320333;28;20528;-83
2023/09/16 13:47:06;;;;;;;2.92;2.30;;;;;;;30.38;67.14;101226.72;10313866;28;20039;-80
2023/09/16 13:52:06;;;;;;;4.05;2.38;;;;;;;30.80;65.11;101253.31;10306705;28;20039;-83
2023/09/16 13:57:07;;;;;;;5.18;3.42;;;;;;;30.96;64.96;101257.66;10321536;28;20042;-83
2023/09/16 14:02:09;;;;;;;3.38;2.90;;;;;;;30.57;67.73;101274.09;10313371;28;20035;-83
2023/09/16 14:07:10;;;;;;;6.97;3.28;;;;;;;30.82;66.51;101267.97;10320966;28;20046;-84
2023/09/16 14:12:10;;;;;;;5.15;3.78;;;;;;;30.60;65.69;101272.53;10314558;28;20042;-84
2023/09/16 14:17:11;;;;;;;4.15;2.97;;;;;;;30.31;66.09;101270.06;10307690;28;20403;-86
2023/09/16 14:22:11;;;;;;;3.92;2.72;;;;;;;29.87;68.40;101281.84;10319912;28;20494;-85
2023/09/16 14:27:12;;;;;;;4.40;2.75;;;;;;;29.91;66.60;101274.22;10316009;28;20034;-85
2023/09/16 14:32:12;;;;;;;4.03;2.33;;;;;;;29.67;69.90;101280.19;10319534;28;20061;-83
2023/09/16 14:37:13;;;;;;;5.07;2.95;;;;;;;28.52;75.17;101308.81;10317041;28;20054;-84
2023/09/16 14:42:16;;;;;;;6.90;3.60;;;;;;;27.37;78.32;101303.66;10318428;28;20086;-84
2023/09/16 14:47:16;;;;;;;5.32;3.60;;;;;;;26.81;78.14;101311.19;10316557;28;20061;-85
2023/09/16 14:52:17;;;;;;;7.32;3.50;;;;;;;25.96;84.49;101322.88;10315643;28;20057;-84
2023/09/16 14:57:17;;;;;;;8.20;5.63;;;;;;;25.43;89.54;101332.97;10318394;28;20035;-85
2023/09/16 15:02:18;;;;;;;7.45;6.13;;;;;;;25.05;93.82;101333.88;10314171;28;20038;-85
2023/09/16 15:07:18;;;;;;;9.50;5.75;;;;;;;24.80;95.46;101298.25;10307751;28;20031;-84
2023/09/16 15:12:19;;;;;;;8.05;5.57;;;;;;;25.12;95.78;101339.78;10320310;28;20049;-84
2023/09/16 15:17:19;;;;;;;7.28;5.15;;;;;;;24.97;96.59;101343.19;10297222;28;20061;-85
2023/09/16 15:22:21;;;;;;;9.18;5.50;;;;;;;24.65;96.93;101348.34;10318386;28;20041;-86
2023/09/16 15:27:22;;;;;;;7.70;4.80;;;;;;;24.22;100.00;101343.69;10312152;28;20046;-86
2023/09/16 15:32:24;;;;;;;6.93;4.82;;;;;;;24.11;100.00;101359.28;10316361;28;20054;-86
2023/09/16 15:37:25;;;;;;;10.13;5.22;;;;;;;23.83;100.00;101362.47;10316721;28;20062;-86
2023/09/16 15:42:25;;;;;;;6.80;4.78;;;;;;;23.56;100.00;101375.72;10314584;28;20039;-83
2023/09/16 15:47:26;;;;;;;10.43;5.72;;;;;;;23.11;100.00;101380.75;10314665;28;20049;-85
2023/09/16 15:52:27;;;;;;;6.55;5.20;;;;;;;22.58;100.00;101378.94;10315213;28;20042;-71
2023/09/16 15:57:28;;;;;;;7.05;3.88;;;;;;;22.24;100.00;101389.66;10247806;28;21237;-84
2023/09/16 16:02:28;;;;;;;7.43;5.30;;;;;;;22.00;100.00;101386.34;10233916;28;20070;-84
2023/09/16 16:07:29;;;;;;;6.63;3.83;;;;;;;21.84;100.00;101400.72;10234283;28;20494;-83
2023/09/16 16:12:29;;;;;;;6.15;3.78;;;;;;;21.58;100.00;101397.72;10295757;28;20039;-84
2023/09/16 16:17:30;;;;;;;4.82;3.22;;;;;;;21.50;100.00;101407.72;10305103;28;20035;-84
2023/09/16 16:22:30;;;;;;;5.72;3.30;;;;;;;21.40;100.00;101402.31;10297789;28;20927;-82
2023/09/16 16:27:31;;;;;;;5.78;3.38;;;;;;;21.34;100.00;101406.38;10307917;28;20038;-80
2023/09/16 16:32:33;;;;;;;6.30;3.90;;;;;;;21.26;100.00;101418.31;10316455;28;20039;-85
2023/09/16 16:37:33;;;;;;;8.95;5.32;;;;;;;21.12;100.00;101418.31;10314682;28;20039;-78
2023/09/16 16:42:33;;;;;;;5.40;4.35;;;;;;;20.95;100.00;101414.19;10311772;28;20058;-80
2023/09/16 16:47:36;;;;;;;7.85;4.47;;;;;;;20.76;100.00;101417.09;10316242;28;20054;-80
2023/09/16 16:52:37;;;;;;;9.07;4.88;;;;;;;20.52;100.00;101411.63;10296669;28;20039;-82
2023/09/16 16:57:37;;;;;;;9.55;5.05;;;;;;;20.41;100.00;101432.56;10305984;28;20072;-81
2023/09/16 17:02:37;;;;;;;8.27;4.40;;;;;;;20.11;100.00;101423.59;10317697;28;20035;-72
2023/09/16 17:07:38;;;;;;;7.75;4.10;;;;;;;19.94;100.00;101440.06;10325048;28;20047;-80
2023/09/16 17:12:39;;;;;;;6.70;5.20;;;;;;;19.72;100.00;101437.88;10320558;28;20035;-80
2023/09/16 17:17:40;;;;;;;7.47;5.30;;;;;;;19.40;100.00;101428.25;10315413;28;20062;-80
2023/09/16 17:22:40;;;;;;;13.32;7.18;;;;;;;19.31;100.00;101449.63;10321098;28;20039;-82
2023/09/16 17:27:41;;;;;;;10.50;7.50;;;;;;;19.24;100.00;101460.31;10321841;28;20603;-81
2023/09/16 17:32:41;;;;;;;14.93;9.15;;;;;;;19.11;100.00;101468.28;10318545;28;20034;-82
2023/09/16 17:37:42;;;;;;;16.85;9.23;;;;;;;18.97;100.00;101467.31;10319594;28;20054;-82
2023/09/16 17:42:42;;;;;;;13.63;8.90;;;;;;;18.86;100.00;101466.63;10303447;28;20138;-80
2023/09/16 17:47:43;;;;;;;13.18;7.95;;;;;;;18.73;100.00;101467.31;10321000;28;20171;-81
2023/09/16 17:52:43;;;;;;;12.60;9.25;;;;;;;18.54;100.00;101481.13;10327860;28;20042;-80
2023/09/16 17:57:44;;;;;;;13.23;9.55;;;;;;;18.37;100.00;101467.63;10322361;28;20129;-81
2023/09/16 18:02:45;;;;;;;10.93;8.23;;;;;;;18.25;100.00;101484.75;10323063;28;20039;-68
2023/09/16 18:07:46;;;;;;;14.02;10.60;;;;;;;18.17;100.00;101488.16;10320410;28;20050;-68
2023/09/16 18:12:46;;;;;;;18.27;12.82;;;;;;;17.94;100.00;101484.97;10323104;28;20517;-80
2023/09/16 18:17:47;;;;;;;15.20;11.07;;;;;;;17.99;100.00;101498.03;10321702;28;20053;-81
2023/09/16 18:22:48;;;;;;;17.95;12.27;;;;;;;17.88;100.00;101502.00;10319249;28;20039;-78
2023/09/16 18:27:48;;;;;;;15.05;12.23;;;;;;;17.84;100.00;101524.03;10321060;28;20057;-81
2023/09/16 18:32:49;;;;;;;20.30;12.57;;;;;;;17.77;100.00;101529.06;10319737;28;20039;-80
2023/09/16 18:37:49;;;;;;;18.00;13.88;;;;;;;17.63;100.00;101534.44;10322657;28;20045;-80
2023/09/16 18:42:50;;;;;;;18.42;13.88;;;;;;;17.50;100.00;101541.44;10319342;28;20045;-80
2023/09/16 18:47:50;;;;;;;19.85;12.90;;;;;;;17.45;100.00;101544.25;10313896;28;20113;-82
2023/09/16 18:52:51;;;;;;;19.85;14.55;;;;;;;17.44;100.00;101552.88;10302751;28;20035;-82
2023/09/16 18:57:51;;;;;;;24.17;17.15;;;;;;;17.40;100.00;101552.59;10320783;28;20038;-79
2023/09/16 19:02:53;;;;;;;21.83;15.45;;;;;;;17.37;100.00;101553.19;10315025;28;20050;-79
2023/09/16 19:07:53;;;;;;;23.30;16.30;;;;;;;17.28;100.00;101552.94;10319431;28;20146;-77
2023/09/16 19:12:54;;;;;;;25.33;18.00;;;;;;;17.21;100.00;101565.47;10296248;28;20062;-81
2023/09/16 19:17:54;;;;;;;24.23;15.27;;;;;;;17.07;100.00;101557.69;10295197;28;20047;-80
2023/09/16 19:22:55;;;;;;;25.77;17.35;;;;;;;16.85;100.00;101546.91;10298629;28;20039;-80
2023/09/16 19:27:56;;;;;;;23.83;18.20;;;;;;;16.85;100.00;101557.22;10305974;28;20042;-80
2023/09/16 19:32:57;;;;;;;26.55;18.63;;;;;;;16.80;100.00;101566.34;10310221;28;20043;-80
2023/09/16 19:37:57;;;;;;;25.42;16.73;;;;;;;16.68;100.00;101552.75;10318568;28;20051;-78
2023/09/16 19:42:58;;;;;;;27.75;18.85;;;;;;;16.68;100.00;101566.66;10304381;28;20045;-84
2023/09/16 19:47:58;;;;;;;23.75;16.38;;;;;;;16.57;100.00;101555.78;10292944;28;20046;-82
2023/09/16 19:52:58;;;;;;;26.05;18.67;;;;;;;16.45;100.00;101547.72;10297660;28;20683;-80
2023/09/16 19:57:59;;;;;;;26.25;18.55;;;;;;;16.24;100.00;101535.78;10300582;28;20046;-84
2023/09/16 20:02:59;;;;;;;26.02;17.90;;;;;;;16.14;100.00;101539.34;10293750;28;20046;-79
2023/09/16 20:08:00;;;;;;;27.48;20.10;;;;;;;16.07;100.00;101552.69;10296131;28;20050;-82
2023/09/16 20:13:00;;;;;;;27.35;19.05;;;;;;;15.97;100.00;101547.94;10298970;28;20533;-79
2023/09/16 20:18:01;;;;;;;28.10;18.92;;;;;;;15.90;100.00;101552.94;10310593;28;20514;-77
2023/09/16 20:23:01;;;;;;;24.42;16.80;;;;;;;15.85;100.00;101558.47;10301696;28;20045;-82
2023/09/16 20:28:02;;;;;;;25.52;16.80;;;;;;;15.77;100.00;101553.44;10297964;28;20070;-82
2023/09/16 20:33:04;;;;;;;27.65;19.08;;;;;;;15.68;100.00;101551.16;10303277;28;20077;-82
2023/09/16 20:38:04;;;;;;;23.60;16.50;;;;;;;15.59;100.00;101547.25;10309528;28;20035;-82
2023/09/16 20:43:05;;;;;;;23.45;16.48;;;;;;;15.51;100.00;101548.59;10278452;28;20429;-81
2023/09/16 20:48:05;;;;;;;27.67;17.52;;;;;;;15.42;100.00;101541.91;10312709;28;20097;-83
2023/09/16 20:53:06;;;;;;;24.50;17.75;;;;;;;15.28;100.00;101535.19;10311467;28;20035;-80
2023/09/16 20:58:08;;;;;;;23.98;17.17;;;;;;;15.24;100.00;101532.13;10305213;28;20042;-80
2023/09/16 21:03:08;;;;;;;26.65;17.67;;;;;;;15.15;100.00;101536.47;10317938;28;20062;-75
2023/09/16 21:08:08;;;;;;;28.02;19.55;;;;;;;14.51;100.00;101443.19;10305367;28;20047;-81
2023/09/16 21:13:09;;;;;;;25.80;17.35;;;;;;;14.94;100.00;101527.22;10319688;28;20184;-81
2023/09/16 21:18:09;;;;;;;26.17;19.77;;;;;;;14.91;100.00;101534.13;10314277;28;20043;-84
2023/09/16 21:23:10;;;;;;;23.23;18.05;;;;;;;14.82;100.00;101530.22;10316799;28;20509;-81
2023/09/16 21:28:10;;;;;;;27.02;20.67;;;;;;;14.77;100.00;101537.66;10315243;28;20618;-82
2023/09/16 21:33:11;;;;;;;33.20;19.95;;;;;;;14.71;100.00;101536.78;10291215;28;20045;-82
2023/09/16 21:38:11;;;;;;;28.33;19.75;;;;;;;14.61;100.00;101543.06;10286223;28;20527;-82
2023/09/16 21:43:12;;;;;;;28.02;20.17;;;;;;;14.52;100.00;101544.63;10307282;28;20095;-82
2023/09/16 21:48:12;;;;;;;36.83;20.35;;;;;;;14.46;100.00;101540.16;10301444;28;20053;-80
2023/09/16 21:53:13;;;;;;;30.75;19.92;;;;;;;14.40;100.00;101546.75;10324997;28;20038;-83
2023/09/16 21:58:13;;;;;;;30.75;21.90;;;;;;;14.37;100.00;101541.75;10322689;28;20045;-81
2023/09/16 22:03:14;;;;;;;32.55;21.48;;;;;;;14.26;100.00;101552.72;10323720;28;20042;-82
2023/09/16 22:08:14;;;;;;;29.58;20.38;;;;;;;14.17;100.00;101532.13;10302668;28;20050;-82
2023/09/16 22:13:15;;;;;;;30.45;21.33;;;;;;;14.08;100.00;101539.25;10308121;28;20046;-84
2023/09/16 22:18:15;;;;;;;31.83;22.20;;;;;;;14.00;100.00;101542.50;10313953;28;20042;-80
2023/09/16 22:23:17;;;;;;;31.33;21.30;;;;;;;13.95;100.00;101540.50;10305853;28;20073;-81
2023/09/16 22:28:17;;;;;;;32.22;22.25;;;;;;;13.86;100.00;101531.81;10314866;28;20043;-81